Time;durP1;ratioP1;P1;durP2;ratioP2;P2;SDS_P1;SDS_P2;PMS_P1;PMS_P2;Temp;Humidity;BMP_temperature;BMP_pressure;BME280_temperature;BME280_humidity;BME280_pressure;Samples;Min_cycle;Max_cycle;Signal;HPM_P1;HPM_P2
2021/08/16 00:00:43;;;;;;;9.18;8.28;;;;;;;28.11;45.55;99631.61;1805726;78;21675;-65
2021/08/16 00:03:10;;;;;;;12.35;9.15;;;;;;;28.11;45.64;99628.88;1824005;77;21022;-66
2021/08/16 00:05:38;;;;;;;11.75;8.25;;;;;;;28.11;45.67;99626.95;1815099;77;21195;-67
2021/08/16 00:08:10;;;;;;;10.55;9.05;;;;;;;28.13;45.66;99626.67;1823034;77;21076;-67
2021/08/16 00:10:38;;;;;;;10.88;9.78;;;;;;;28.13;45.70;99623.38;1824070;77;20996;-67
2021/08/16 00:13:04;;;;;;;11.68;8.83;;;;;;;28.15;45.71;99623.10;1824718;77;21116;-67
2021/08/16 00:15:33;;;;;;;12.20;9.13;;;;;;;28.15;45.76;99624.47;1827647;77;21033;-69
2021/08/16 00:18:01;;;;;;;11.12;8.25;;;;;;;28.15;45.72;99623.91;1825323;77;21082;-67
2021/08/16 00:20:28;;;;;;;9.95;8.95;;;;;;;28.14;45.66;99620.89;1835408;77;21029;-67
2021/08/16 00:22:54;;;;;;;11.80;9.00;;;;;;;28.15;45.69;99623.91;1845325;77;21004;-67
2021/08/16 00:25:21;;;;;;;11.55;8.93;;;;;;;28.15;45.72;99621.73;1827038;77;21049;-68
2021/08/16 00:27:49;;;;;;;10.10;8.15;;;;;;;28.15;45.74;99617.64;1826537;77;21611;-67
2021/08/16 00:30:15;;;;;;;11.28;9.05;;;;;;;28.15;45.69;99619.81;1820519;77;21063;-68
2021/08/16 00:32:42;;;;;;;11.40;9.45;;;;;;;28.15;45.74;99619.00;1819668;77;21082;-67
2021/08/16 00:35:10;;;;;;;10.28;9.15;;;;;;;28.15;45.65;99619.81;1840393;77;20986;-67
2021/08/16 00:37:38;;;;;;;11.93;9.45;;;;;;;28.14;45.54;99619.53;1834196;77;20982;-66
2021/08/16 00:40:08;;;;;;;12.07;9.95;;;;;;;28.12;45.55;99616.27;1826064;77;21008;-67
2021/08/16 00:42:36;;;;;;;12.43;9.95;;;;;;;28.11;45.55;99613.86;1812534;77;21086;-66
2021/08/16 00:45:04;;;;;;;11.50;9.80;;;;;;;28.10;45.59;99616.31;1822065;77;21049;-66
2021/08/16 00:47:32;;;;;;;12.05;9.80;;;;;;;28.08;45.63;99622.05;1837903;77;21036;-66
2021/08/16 00:49:59;;;;;;;10.95;9.75;;;;;;;28.08;45.60;99622.61;1762814;80;21059;-66
2021/08/16 00:52:27;;;;;;;13.48;10.23;;;;;;;28.07;45.57;99620.97;1773691;80;21020;-67
2021/08/16 00:54:54;;;;;;;11.00;9.88;;;;;;;28.04;45.57;99626.47;1773598;80;21176;-67
2021/08/16 00:57:27;;;;;;;10.05;9.15;;;;;;;28.01;45.55;99619.67;1745723;80;21030;-68
2021/08/16 00:59:53;;;;;;;11.38;10.15;;;;;;;27.99;45.64;99623.23;1818214;77;21030;-67
2021/08/16 01:02:20;;;;;;;11.65;10.05;;;;;;;27.98;45.73;99621.59;1821944;77;21026;-67
2021/08/16 01:04:48;;;;;;;10.60;9.45;;;;;;;27.97;45.73;99615.89;1810441;77;21561;-68
2021/08/16 01:07:15;;;;;;;12.28;10.48;;;;;;;27.95;45.73;99614.00;1805686;77;22212;-68
2021/08/16 01:09:41;;;;;;;11.40;10.20;;;;;;;27.94;45.72;99609.63;1800120;77;22207;-68
2021/08/16 01:12:09;;;;;;;14.38;10.80;;;;;;;27.94;45.74;99610.98;1798893;77;21566;-69
2021/08/16 01:14:36;;;;;;;13.95;11.28;;;;;;;27.93;45.74;99614.84;1810048;77;21023;-69
2021/08/16 01:17:04;;;;;;;12.95;10.20;;;;;;;27.92;45.75;99614.56;1819767;78;22490;-69
2021/08/16 01:19:32;;;;;;;13.13;10.30;;;;;;;27.91;45.74;99608.84;1809424;78;21080;-68
2021/08/16 01:22:00;;;;;;;12.40;10.25;;;;;;;27.90;45.74;99611.30;1799963;77;21667;-69
2021/08/16 01:24:26;;;;;;;12.78;10.98;;;;;;;27.88;45.82;99605.31;1801284;77;21506;-69
2021/08/16 01:26:53;;;;;;;12.53;10.50;;;;;;;27.87;45.79;99611.83;1796138;78;21439;-68
2021/08/16 01:29:22;;;;;;;12.93;10.82;;;;;;;27.86;45.84;99608.85;1807588;77;21569;-67
2021/08/16 01:31:49;;;;;;;13.40;10.88;;;;;;;27.84;45.81;99606.96;1805589;77;21849;-66
2021/08/16 01:34:16;;;;;;;13.35;10.55;;;;;;;27.82;45.86;99599.61;1805834;77;21111;-67
2021/08/16 01:36:44;;;;;;;13.13;10.32;;;;;;;27.81;45.92;99600.70;1810660;78;21029;-66
2021/08/16 01:39:10;;;;;;;12.90;10.78;;;;;;;27.79;46.00;99602.90;1803633;78;21049;-66
2021/08/16 01:41:37;;;;;;;13.22;10.55;;;;;;;27.78;46.04;99604.82;1785020;77;21031;-68
2021/08/16 01:44:04;;;;;;;12.78;10.78;;;;;;;27.78;46.06;99600.73;1795155;77;21833;-66
2021/08/16 01:46:30;;;;;;;12.88;10.90;;;;;;;27.78;46.17;99603.45;1794135;77;21048;-67
2021/08/16 01:48:59;;;;;;;14.13;10.80;;;;;;;27.77;46.21;99597.72;1807120;78;21059;-66
2021/08/16 01:51:25;;;;;;;13.03;10.98;;;;;;;27.77;46.23;99599.64;1815439;77;20970;-67
2021/08/16 01:53:53;;;;;;;12.10;10.85;;;;;;;27.77;46.22;99603.73;1788176;78;21050;-68
2021/08/16 01:56:20;;;;;;;13.35;10.53;;;;;;;27.77;46.23;99601.81;1790214;78;21315;-67
2021/08/16 01:58:47;;;;;;;12.90;11.33;;;;;;;27.77;46.29;99598.28;1799147;78;21024;-69
2021/08/16 02:01:14;;;;;;;12.75;10.72;;;;;;;27.79;46.33;99598.80;1806490;78;21053;-68
2021/08/16 02:03:40;;;;;;;14.28;10.43;;;;;;;27.79;46.42;99599.61;1809426;78;21037;-67
2021/08/16 02:06:07;;;;;;;12.23;10.20;;;;;;;27.81;46.41;99596.61;1807862;77;21536;-66
2021/08/16 02:08:35;;;;;;;13.38;11.43;;;;;;;27.80;46.38;99598.53;1795717;77;21561;-65
2021/08/16 02:11:03;;;;;;;12.63;11.03;;;;;;;27.82;46.39;99597.69;1790908;78;21185;-66
2021/08/16 02:13:31;;;;;;;12.58;11.30;;;;;;;27.84;46.33;99604.23;1802075;77;21060;-66
2021/08/16 02:15:57;;;;;;;14.28;10.38;;;;;;;27.84;46.32;99598.77;1812631;78;21640;-67
2021/08/16 02:18:24;;;;;;;14.45;10.78;;;;;;;27.84;46.28;99611.86;1793575;78;21009;-66
2021/08/16 02:20:51;;;;;;;13.03;11.43;;;;;;;27.84;46.20;99604.23;1810266;78;21145;-66
2021/08/16 02:23:17;;;;;;;12.75;10.53;;;;;;;27.83;46.24;99606.69;1790638;78;21008;-67
2021/08/16 02:25:44;;;;;;;11.90;10.72;;;;;;;27.80;46.22;99602.63;1802974;78;21123;-66
2021/08/16 02:28:10;;;;;;;13.58;10.95;;;;;;;27.80;46.16;99612.73;1812175;78;21542;-66
2021/08/16 02:30:36;;;;;;;14.13;10.68;;;;;;;27.78;46.23;99613.02;1802311;77;21049;-66
2021/08/16 02:33:03;;;;;;;13.62;11.30;;;;;;;27.77;46.23;99616.83;1805090;78;21780;-66
2021/08/16 02:35:31;;;;;;;13.03;9.83;;;;;;;27.77;46.19;99621.48;1800541;77;21032;-66
2021/08/16 02:37:57;;;;;;;13.65;10.93;;;;;;;27.75;46.18;99628.58;1803015;78;21081;-67
2021/08/16 02:40:23;;;;;;;12.40;11.03;;;;;;;27.74;46.19;99617.94;1796937;78;21473;-67
2021/08/16 02:42:50;;;;;;;12.20;10.75;;;;;;;27.73;46.21;99627.25;1805998;77;21123;-66
2021/08/16 02:45:16;;;;;;;13.03;10.72;;;;;;;27.70;46.26;99621.81;1806280;77;21156;-67
2021/08/16 02:47:44;;;;;;;11.50;10.35;;;;;;;27.70;46.26;99623.18;1805754;77;21652;-67
2021/08/16 02:50:11;;;;;;;11.60;9.98;;;;;;;27.68;46.34;99615.83;1796169;77;21092;-66
2021/08/16 02:52:39;;;;;;;14.75;11.50;;;;;;;27.69;46.33;99623.46;1800980;78;21033;-67
2021/08/16 02:55:07;;;;;;;14.07;11.28;;;;;;;27.69;46.53;99622.09;1808806;77;21514;-67
2021/08/16 02:57:34;;;;;;;11.55;10.35;;;;;;;27.69;46.49;99623.46;1797848;78;21112;-65
2021/08/16 03:00:00;;;;;;;14.00;10.85;;;;;;;27.70;46.50;99633.26;1810617;78;21098;-66
2021/08/16 03:02:26;;;;;;;13.30;10.60;;;;;;;27.71;46.54;99629.45;1806684;77;21037;-67
2021/08/16 03:04:53;;;;;;;11.95;10.18;;;;;;;27.71;46.60;99623.42;1816673;77;21001;-66
2021/08/16 03:07:19;;;;;;;13.62;10.68;;;;;;;27.71;46.52;99617.16;1819584;77;21083;-68
2021/08/16 03:09:46;;;;;;;14.13;11.10;;;;;;;27.71;46.50;99625.35;1826664;77;21144;-66
2021/08/16 03:12:14;;;;;;;12.58;11.10;;;;;;;27.70;46.50;99619.61;1826790;77;21001;-65
2021/08/16 03:14:41;;;;;;;12.98;10.85;;;;;;;27.69;46.52;99622.90;1826167;77;21547;-65
2021/08/16 03:17:07;;;;;;;16.00;10.55;;;;;;;27.69;46.50;99623.46;1815100;77;21019;-67
2021/08/16 03:19:34;;;;;;;10.85;9.88;;;;;;;27.67;46.52;99624.30;1818198;77;20982;-66
2021/08/16 03:22:02;;;;;;;11.30;10.15;;;;;;;27.67;46.56;99622.93;1821815;77;22333;-67
2021/08/16 03:24:31;;;;;;;15.85;10.48;;;;;;;27.64;46.63;99616.95;1811067;77;21009;-65
2021/08/16 03:26:59;;;;;;;14.68;10.90;;;;;;;27.64;46.67;99617.47;1834609;77;21030;-66
2021/08/16 03:29:26;;;;;;;11.93;10.43;;;;;;;27.63;46.71;99622.13;1817337;77;20974;-67
2021/08/16 03:31:52;;;;;;;16.87;11.73;;;;;;;27.65;46.71;99625.38;1836223;77;21002;-67
2021/08/16 03:34:19;;;;;;;12.43;11.12;;;;;;;27.67;46.77;99624.30;1825070;77;21129;-67
2021/08/16 03:36:45;;;;;;;12.47;10.13;;;;;;;27.68;46.76;99620.45;1817501;77;20985;-68
2021/08/16 03:39:12;;;;;;;12.37;11.10;;;;;;;27.70;46.72;99622.34;1814228;77;21047;-68
2021/08/16 03:41:38;;;;;;;14.18;9.85;;;;;;;27.71;46.78;99617.16;1824509;77;21029;-68
2021/08/16 03:44:05;;;;;;;30.85;27.80;;;;;;;27.71;46.74;99608.98;1819906;77;21043;-67
2021/08/16 03:46:31;;;;;;;14.80;12.75;;;;;;;27.72;46.73;99611.95;1824119;77;21102;-67
2021/08/16 03:48:58;;;;;;;15.30;12.50;;;;;;;27.74;46.65;99612.48;1819096;77;21017;-66
2021/08/16 03:51:25;;;;;;;15.43;13.72;;;;;;;27.75;46.65;99610.03;1825832;77;21553;-67
2021/08/16 03:53:51;;;;;;;14.10;12.33;;;;;;;27.75;46.63;99607.30;1819354;77;21051;-67
2021/08/16 03:56:18;;;;;;;12.90;11.60;;;;;;;27.76;46.67;99603.49;1825717;77;21045;-67
2021/08/16 03:58:45;;;;;;;13.70;11.43;;;;;;;27.76;46.65;99604.86;1845275;77;21089;-68
2021/08/16 04:01:12;;;;;;;13.00;11.68;;;;;;;27.77;46.61;99607.27;1833290;77;20990;-68
2021/08/16 04:03:41;;;;;;;14.07;11.60;;;;;;;27.78;46.62;99611.65;1817402;77;21067;-66
2021/08/16 04:06:08;;;;;;;16.55;10.98;;;;;;;27.79;46.47;99611.09;1827433;77;20978;-66
2021/08/16 04:08:39;;;;;;;12.05;10.78;;;;;;;27.80;46.45;99615.46;1836939;77;21015;-66
2021/08/16 04:11:11;;;;;;;12.82;11.00;;;;;;;27.80;46.50;99617.63;1834869;77;21155;-68
2021/08/16 04:13:38;;;;;;;12.88;10.80;;;;;;;27.81;46.50;99617.08;1832507;77;20998;-68
2021/08/16 04:16:05;;;;;;;13.10;11.75;;;;;;;27.81;46.49;99625.27;1827892;77;21012;-67
2021/08/16 04:18:32;;;;;;;11.90;10.70;;;;;;;27.82;46.46;99621.45;1836497;77;21116;-68
2021/08/16 04:21:00;;;;;;;13.32;10.68;;;;;;;27.82;46.45;99620.08;1819915;77;21100;-69
2021/08/16 04:23:27;;;;;;;14.23;11.08;;;;;;;27.83;46.51;99614.88;1816174;77;21137;-67
2021/08/16 04:25:55;;;;;;;13.98;10.23;;;;;;;27.85;46.56;99619.49;1819418;77;21077;-67
2021/08/16 04:28:22;;;;;;;16.32;10.80;;;;;;;27.87;46.53;99618.66;1814038;77;20969;-66
2021/08/16 04:30:48;;;;;;;12.45;9.68;;;;;;;27.88;46.51;99612.14;1829843;77;21787;-68
2021/08/16 04:33:15;;;;;;;12.82;10.95;;;;;;;27.90;46.53;99614.59;1821202;77;21072;-67
2021/08/16 04:35:41;;;;;;;15.58;11.12;;;;;;;27.91;46.59;99617.05;1816360;77;21071;-68
2021/08/16 04:38:08;;;;;;;12.03;10.78;;;;;;;27.92;46.76;99616.48;1829365;77;21457;-67
2021/08/16 04:40:34;;;;;;;11.75;10.00;;;;;;;27.92;46.80;99617.29;1829953;77;21579;-68
2021/08/16 04:43:02;;;;;;;13.90;11.38;;;;;;;27.92;46.88;99614.56;1830985;77;21054;-67
2021/08/16 04:45:29;;;;;;;16.02;11.50;;;;;;;27.93;46.94;99616.20;1823498;77;21053;-68
2021/08/16 04:47:56;;;;;;;16.85;10.75;;;;;;;27.95;46.96;99619.45;1815372;77;21073;-67
2021/08/16 04:50:22;;;;;;;12.43;10.45;;;;;;;27.95;47.03;99612.63;1820464;77;21015;-68
2021/08/16 04:52:49;;;;;;;13.93;10.95;;;;;;;27.96;47.01;99620.27;1815566;77;21495;-70
2021/08/16 04:55:15;;;;;;;15.43;10.70;;;;;;;27.97;46.99;99624.08;1799347;79;21067;-67
2021/08/16 04:57:44;;;;;;;13.58;11.08;;;;;;;27.97;47.01;99621.34;1787983;79;21043;-67
2021/08/16 05:00:13;;;;;;;13.70;12.30;;;;;;;27.97;47.06;99617.25;1778467;79;21945;-68
2021/08/16 05:02:40;;;;;;;15.15;10.95;;;;;;;27.99;47.08;99620.51;1786965;79;21078;-69
2021/08/16 05:05:14;;;;;;;13.83;11.50;;;;;;;28.01;47.10;99618.30;1770979;80;21123;-68
2021/08/16 05:07:38;;;;;;;13.80;11.75;;;;;;;28.01;47.06;99614.21;1750895;80;21037;-69
2021/08/16 05:10:07;;;;;;;14.38;10.55;;;;;;;28.03;47.06;99614.73;1775350;79;21088;-68
2021/08/16 05:12:35;;;;;;;16.45;11.33;;;;;;;28.03;47.10;99618.83;1779927;79;21142;-68
2021/08/16 05:15:02;;;;;;;16.50;11.75;;;;;;;28.06;47.13;99622.09;1778198;79;21041;-69
2021/08/16 05:17:28;;;;;;;12.43;10.53;;;;;;;28.08;47.01;99622.61;1787944;79;21500;-69
2021/08/16 05:21:11;;;;;;;15.13;11.33;;;;;;;28.14;47.11;99621.45;1882772;75;22485;-64
2021/08/16 05:23:39;;;;;;;12.95;11.35;;;;;;;28.09;47.71;99622.89;1845708;77;20918;-63
2021/08/16 05:26:05;;;;;;;13.78;11.55;;;;;;;28.10;47.94;99621.22;1841483;77;21162;-65
2021/08/16 05:28:33;;;;;;;13.78;12.20;;;;;;;28.11;47.87;99618.76;1857438;77;21103;-64
2021/08/16 05:31:00;;;;;;;16.42;12.10;;;;;;;28.12;47.87;99624.47;1850415;77;20941;-64
2021/08/16 05:33:26;;;;;;;13.25;10.98;;;;;;;28.12;47.98;99620.37;1850430;77;20976;-63
2021/08/16 05:35:52;;;;;;;12.80;11.20;;;;;;;28.13;47.89;99631.58;1858752;76;21037;-66
2021/08/16 05:38:19;;;;;;;13.00;11.60;;;;;;;28.15;48.14;99631.30;1858641;77;21942;-65
2021/08/16 05:40:45;;;;;;;13.65;11.05;;;;;;;28.15;48.34;99641.66;1856751;76;21491;-65
2021/08/16 05:43:12;;;;;;;14.93;10.40;;;;;;;28.17;48.31;99638.64;1858773;77;21524;-65
2021/08/16 05:45:39;;;;;;;19.52;17.40;;;;;;;28.18;48.45;99645.19;1854492;77;21040;-65
2021/08/16 05:48:06;;;;;;;14.85;11.68;;;;;;;28.19;47.95;99648.17;1822720;77;21037;-66
2021/08/16 05:50:33;;;;;;;14.70;10.53;;;;;;;28.19;48.17;99641.90;1835428;77;21912;-65
2021/08/16 05:53:00;;;;;;;15.15;11.28;;;;;;;28.19;47.77;99640.53;1852134;76;21018;-65
2021/08/16 05:55:27;;;;;;;16.48;11.57;;;;;;;28.18;47.92;99635.63;1858514;77;21033;-64
2021/08/16 05:57:53;;;;;;;16.93;10.50;;;;;;;28.20;48.13;99633.42;1857348;77;21013;-65
2021/08/16 06:00:20;;;;;;;11.50;10.30;;;;;;;28.21;48.01;99635.04;1818871;77;21025;-67
2021/08/16 06:02:48;;;;;;;13.98;9.90;;;;;;;28.23;47.25;99636.13;1814675;77;21053;-66
2021/08/16 06:05:15;;;;;;;15.38;10.58;;;;;;;28.22;47.38;99630.38;1851380;77;21002;-64
2021/08/16 06:07:42;;;;;;;13.55;10.18;;;;;;;28.24;47.64;99630.38;1854972;77;21567;-64
2021/08/16 06:10:10;;;;;;;14.55;11.10;;;;;;;28.25;47.75;99624.36;1841540;76;21044;-64
2021/08/16 06:12:37;;;;;;;54.83;45.23;;;;;;;28.28;47.96;99621.06;1839393;77;21022;-64
2021/08/16 06:15:05;;;;;;;20.88;17.07;;;;;;;28.30;47.86;99614.75;1848801;77;21966;-65
2021/08/16 06:17:33;;;;;;;14.83;12.78;;;;;;;28.33;47.95;99613.35;1852980;77;20983;-65
2021/08/16 06:20:01;;;;;;;17.25;12.37;;;;;;;28.36;47.85;99613.59;1840240;77;21585;-65
2021/08/16 06:22:29;;;;;;;14.70;11.57;;;;;;;28.39;47.33;99617.66;1801839;78;21088;-65
2021/08/16 06:24:58;;;;;;;15.40;11.85;;;;;;;28.39;46.74;99613.00;1793703;78;21120;-64
2021/08/16 06:27:25;;;;;;;15.20;11.68;;;;;;;28.40;46.88;99617.38;1803342;78;21028;-66
2021/08/16 06:29:51;;;;;;;18.50;11.48;;;;;;;28.40;46.98;99621.47;1819561;78;21385;-64
2021/08/16 06:32:18;;;;;;;15.25;11.48;;;;;;;28.44;47.19;99632.64;1749401;80;21038;-65
2021/08/16 06:34:45;;;;;;;14.90;11.88;;;;;;;28.46;47.26;99628.25;1741642;80;21054;-65
2021/08/16 06:37:11;;;;;;;14.60;12.13;;;;;;;28.49;47.20;99627.66;1790237;78;21539;-63
2021/08/16 06:39:38;;;;;;;14.87;10.78;;;;;;;28.50;46.88;99627.37;1802805;78;21176;-65
2021/08/16 06:42:04;;;;;;;12.55;9.50;;;;;;;28.52;46.35;99625.19;1809144;78;21148;-65
2021/08/16 06:44:32;;;;;;;10.75;9.03;;;;;;;28.53;46.20;99630.94;1794968;78;21089;-66
2021/08/16 06:46:58;;;;;;;18.40;10.48;;;;;;;28.54;45.47;99627.08;1798420;78;21049;-64
2021/08/16 06:49:25;;;;;;;12.98;8.70;;;;;;;28.53;45.55;99627.37;1776803;78;21584;-64
2021/08/16 06:51:51;;;;;;;12.13;9.03;;;;;;;28.56;45.85;99628.16;1817937;78;21046;-63
2021/08/16 06:54:19;;;;;;;9.90;8.98;;;;;;;28.57;46.09;99624.34;1791574;78;21018;-64
2021/08/16 06:56:45;;;;;;;14.05;9.63;;;;;;;28.59;46.91;99627.03;1827521;78;21119;-63
2021/08/16 06:59:12;;;;;;;11.73;9.15;;;;;;;28.59;47.06;99629.77;1818140;78;21042;-64
2021/08/16 07:01:39;;;;;;;14.65;10.13;;;;;;;28.59;47.57;99625.67;1816362;78;21533;-65
2021/08/16 07:04:05;;;;;;;12.07;9.18;;;;;;;28.60;47.21;99623.18;1801153;78;21124;-64
2021/08/16 07:06:31;;;;;;;13.10;8.78;;;;;;;28.62;47.96;99625.63;1819213;78;21056;-64
2021/08/16 07:08:58;;;;;;;11.95;9.20;;;;;;;28.62;47.95;99629.17;1750720;82;20998;-64
2021/08/16 07:11:25;;;;;;;10.98;8.30;;;;;;;28.64;47.40;99631.62;1795406;78;20999;-65
2021/08/16 07:13:51;;;;;;;13.48;10.63;;;;;;;28.63;47.31;99628.08;1805298;78;22007;-65
2021/08/16 07:16:18;;;;;;;14.90;10.20;;;;;;;28.65;46.44;99627.80;1780055;78;21198;-65
2021/08/16 07:18:46;;;;;;;13.08;10.43;;;;;;;28.64;46.10;99627.52;1800160;78;21030;-64
2021/08/16 07:21:14;;;;;;;13.00;10.72;;;;;;;28.63;45.73;99633.55;1799457;77;21517;-65
2021/08/16 07:23:42;;;;;;;13.22;10.55;;;;;;;28.63;45.74;99637.64;1832417;77;21017;-65
2021/08/16 07:26:09;;;;;;;11.28;9.63;;;;;;;28.66;45.99;99643.63;1823403;77;21061;-63
2021/08/16 07:28:36;;;;;;;10.55;9.35;;;;;;;28.67;46.49;99643.91;1776098;80;21195;-64
2021/08/16 07:31:03;;;;;;;15.90;10.63;;;;;;;28.68;46.19;99641.42;1830660;77;21029;-65
2021/08/16 07:33:29;;;;;;;15.75;10.35;;;;;;;28.69;46.18;99641.13;1826883;77;21077;-65
2021/08/16 07:35:56;;;;;;;12.75;9.58;;;;;;;28.70;45.65;99637.28;1824235;76;21526;-64
2021/08/16 07:38:22;;;;;;;13.50;9.38;;;;;;;28.71;45.27;99634.82;1832477;77;21466;-64
2021/08/16 07:40:49;;;;;;;10.23;8.75;;;;;;;28.74;45.59;99632.05;1848966;77;21507;-64
2021/08/16 07:43:20;;;;;;;12.82;9.53;;;;;;;28.76;46.26;99638.04;1836788;77;21068;-64
2021/08/16 07:45:49;;;;;;;13.58;9.33;;;;;;;28.76;45.96;99630.67;1840319;77;21052;-64
2021/08/16 07:48:17;;;;;;;13.35;9.58;;;;;;;28.78;46.15;99648.96;1829156;77;22335;-63
2021/08/16 07:50:43;;;;;;;11.12;9.08;;;;;;;28.78;46.07;99638.03;1809288;76;21077;-65
2021/08/16 07:53:10;;;;;;;11.25;8.70;;;;;;;28.79;45.97;99634.17;1843784;76;21116;-64
2021/08/16 07:55:36;;;;;;;11.88;8.95;;;;;;;28.81;46.08;99646.19;1763247;80;21054;-65
2021/08/16 07:58:04;;;;;;;11.93;8.45;;;;;;;28.80;46.11;99646.75;1821850;77;21373;-65
2021/08/16 08:00:31;;;;;;;8.80;7.80;;;;;;;28.82;45.65;99654.66;1824287;77;21480;-65
2021/08/16 08:02:57;;;;;;;9.55;8.55;;;;;;;28.84;45.99;99642.88;1840920;77;21115;-65
2021/08/16 08:05:24;;;;;;;11.73;8.50;;;;;;;28.85;46.15;99639.03;1852877;77;21298;-65
2021/08/16 08:07:50;;;;;;;10.35;7.78;;;;;;;28.86;46.03;99651.61;1822476;76;21014;-65
2021/08/16 08:10:19;;;;;;;8.95;8.10;;;;;;;28.88;46.08;99648.55;1844256;76;21029;-65
2021/08/16 08:12:47;;;;;;;11.45;7.17;;;;;;;28.87;45.82;99636.81;1840167;77;21982;-64
2021/08/16 08:15:16;;;;;;;10.68;8.10;;;;;;;28.89;44.26;99647.46;1818736;77;21076;-65
2021/08/16 08:17:42;;;;;;;11.38;7.85;;;;;;;28.89;44.74;99638.70;1819974;77;21064;-63
2021/08/16 08:20:10;;;;;;;8.98;8.18;;;;;;;28.92;45.10;99634.59;1810872;77;21002;-64
2021/08/16 08:22:37;;;;;;;11.28;8.25;;;;;;;28.93;45.40;99628.80;1847211;77;21498;-64
2021/08/16 08:25:06;;;;;;;9.30;7.80;;;;;;;28.94;45.54;99634.55;1814191;77;21033;-64
2021/08/16 08:27:33;;;;;;;8.63;7.83;;;;;;;28.95;45.37;99629.88;1772799;80;21058;-65
2021/08/16 08:29:59;;;;;;;9.35;7.90;;;;;;;28.96;45.46;99626.05;1764196;80;21119;-63
2021/08/16 08:32:26;;;;;;;8.60;7.75;;;;;;;28.97;45.35;99625.73;1759058;80;21039;-63
2021/08/16 08:34:52;;;;;;;9.73;7.90;;;;;;;28.98;45.14;99636.14;1770570;80;21053;-65
2021/08/16 08:37:19;;;;;;;10.28;7.97;;;;;;;28.99;45.06;99628.19;1748003;80;21274;-65
2021/08/16 08:39:46;;;;;;;10.50;7.08;;;;;;;28.98;44.89;99626.58;1774165;80;21085;-63
2021/08/16 08:42:13;;;;;;;12.28;7.62;;;;;;;29.00;44.53;99631.19;1746167;80;21129;-65
2021/08/16 08:44:41;;;;;;;8.33;7.42;;;;;;;29.00;44.36;99624.36;1815631;77;21006;-64
2021/08/16 08:47:08;;;;;;;9.43;7.92;;;;;;;29.01;44.36;99635.54;1821059;77;21028;-64
2021/08/16 08:49:34;;;;;;;8.53;7.17;;;;;;;29.01;44.13;99632.27;1846149;77;21025;-64
2021/08/16 08:52:04;;;;;;;10.28;8.00;;;;;;;29.02;44.10;99627.05;1847103;77;21003;-65
2021/08/16 08:54:31;;;;;;;8.33;7.05;;;;;;;29.04;44.10;99632.80;1845429;77;21181;-64
2021/08/16 08:56:59;;;;;;;9.65;7.72;;;;;;;29.04;44.05;99633.59;1826876;77;21006;-64
2021/08/16 08:59:25;;;;;;;7.47;6.67;;;;;;;29.05;44.18;99622.91;1835442;77;21061;-64
2021/08/16 09:01:57;;;;;;;9.40;7.15;;;;;;;29.06;44.15;99625.11;1806606;77;21030;-64
2021/08/16 09:04:23;;;;;;;8.73;6.60;;;;;;;29.07;44.22;99619.35;1827800;77;21013;-63
2021/08/16 09:06:50;;;;;;;11.35;7.62;;;;;;;29.09;44.16;99630.80;1821361;77;21492;-64
2021/08/16 09:09:16;;;;;;;7.72;6.95;;;;;;;29.12;44.20;99635.70;1847330;77;21502;-63
2021/08/16 09:11:48;;;;;;;8.48;7.50;;;;;;;29.13;44.17;99628.30;1837490;76;21005;-64
2021/08/16 09:14:17;;;;;;;8.15;7.05;;;;;;;29.14;44.00;99617.08;1827623;77;22144;-64
2021/08/16 09:16:46;;;;;;;11.18;7.17;;;;;;;29.16;43.99;99627.73;1833393;77;21003;-66
2021/08/16 09:19:20;;;;;;;9.43;7.78;;;;;;;29.17;43.40;99612.39;1824275;77;21118;-63
2021/08/16 09:21:59;;;;;;;10.23;7.08;;;;;;;29.20;43.62;99611.78;1833638;77;21244;-64
2021/08/16 09:24:26;;;;;;;8.20;6.85;;;;;;;29.23;43.43;99610.97;1819643;77;21073;-64
2021/08/16 09:26:53;;;;;;;8.00;7.20;;;;;;;29.25;43.48;99611.48;1820074;78;21105;-64
2021/08/16 09:29:22;;;;;;;7.83;7.08;;;;;;;29.27;42.91;99606.53;1836715;78;20979;-64
2021/08/16 09:32:02;;;;;;;9.25;6.83;;;;;;;29.30;42.56;99618.23;1808731;78;21136;-63
2021/08/16 09:34:37;;;;;;;7.33;6.60;;;;;;;29.31;42.17;99609.73;1818045;76;21023;-64
2021/08/16 09:37:24;;;;;;;6.85;6.25;;;;;;;29.32;42.36;99594.95;1831453;78;21444;-64
2021/08/16 09:40:07;;;;;;;8.73;6.65;;;;;;;29.33;42.53;99599.86;1750649;81;21043;-63
2021/08/16 09:42:47;;;;;;;;;;;;;;;29.36;42.55;99619.77;1811880;78;21026;-63
2021/08/16 09:45:16;;;;;;;7.28;6.62;;;;;;;29.37;42.64;99594.05;1834167;78;21182;-63
2021/08/16 09:47:46;;;;;;;8.63;7.20;;;;;;;29.35;42.72;99588.06;1800876;78;21084;-63
2021/08/16 09:50:14;;;;;;;8.33;6.95;;;;;;;29.38;42.71;99597.87;1823446;76;21045;-63
2021/08/16 09:52:41;;;;;;;9.25;7.20;;;;;;;29.41;41.60;99580.84;1762089;79;21463;-65
2021/08/16 09:55:09;;;;;;;8.78;7.30;;;;;;;29.49;42.17;99578.55;1804352;78;21026;-63
2021/08/16 09:57:36;;;;;;;9.10;6.95;;;;;;;29.52;42.23;99582.06;1833428;78;21091;-64
2021/08/16 10:00:06;;;;;;;8.18;7.00;;;;;;;29.54;42.36;99574.37;1750497;81;21049;-64
2021/08/16 10:02:35;;;;;;;7.17;6.20;;;;;;;29.57;42.44;99585.54;1811320;78;21040;-64
2021/08/16 10:05:01;;;;;;;7.60;6.72;;;;;;;29.59;42.38;99580.58;1792029;78;21140;-67
2021/08/16 10:07:28;;;;;;;7.87;6.50;;;;;;;29.64;42.31;99579.67;1805784;76;21021;-64
2021/08/16 10:09:59;;;;;;;8.53;7.70;;;;;;;29.66;42.23;99570.60;1810574;78;21922;-64
2021/08/16 10:12:28;;;;;;;6.45;5.90;;;;;;;29.68;42.14;99576.59;1828429;77;21022;-63
2021/08/16 10:14:54;;;;;;;8.90;6.72;;;;;;;29.70;41.94;99583.94;1822048;78;21060;-65
2021/08/16 10:17:25;;;;;;;6.67;5.92;;;;;;;29.72;41.86;99576.80;1806451;78;21053;-64
2021/08/16 10:19:54;;;;;;;;;;;;;;;29.73;41.87;99575.17;1811442;78;21022;-65
2021/08/16 10:22:20;;;;;;;6.92;6.33;;;;;;;29.75;41.88;99584.46;1844644;77;21122;-64
2021/08/16 10:24:47;;;;;;;7.37;6.67;;;;;;;29.72;41.84;99572.70;1841642;77;21034;-64
2021/08/16 10:27:13;;;;;;;7.20;6.50;;;;;;;29.76;41.91;99587.44;1837801;77;21485;-64
2021/08/16 10:29:42;;;;;;;6.83;6.03;;;;;;;29.78;41.88;99562.75;1816738;77;21028;-64
2021/08/16 10:32:18;;;;;;;9.80;6.67;;;;;;;29.82;41.69;99568.44;1829717;77;21026;-64
2021/08/16 10:34:44;;;;;;;8.05;6.22;;;;;;;29.84;41.58;99555.83;1847293;77;21739;-64
2021/08/16 10:37:15;;;;;;;9.50;6.47;;;;;;;29.87;41.58;99557.41;1844042;77;21025;-64
2021/08/16 10:39:46;;;;;;;9.53;6.70;;;;;;;29.89;41.69;99552.44;1821762;77;21073;-64
2021/08/16 10:42:19;;;;;;;9.55;6.60;;;;;;;29.92;41.58;99557.33;1829803;77;21002;-63
2021/08/16 10:44:58;;;;;;;7.33;6.62;;;;;;;29.95;41.51;99555.34;1826681;77;21018;-65
2021/08/16 10:47:28;;;;;;;8.53;5.80;;;;;;;29.98;41.52;99558.86;1815301;77;21118;-64
2021/08/16 10:50:19;;;;;;;7.03;6.33;;;;;;;29.99;41.44;99562.40;1816830;77;21080;-66
2021/08/16 10:52:48;;;;;;;13.40;6.60;;;;;;;29.99;41.49;99563.20;1824040;77;21506;-65
2021/08/16 10:55:24;;;;;;;9.75;6.70;;;;;;;30.01;41.49;99554.69;1809126;77;21037;-64
2021/08/16 10:57:51;;;;;;;7.55;6.90;;;;;;;30.03;41.42;99551.09;1817303;77;21077;-63
2021/08/16 11:00:19;;;;;;;7.12;6.37;;;;;;;30.07;41.41;99556.22;1843505;77;21092;-65
2021/08/16 11:02:46;;;;;;;6.87;5.78;;;;;;;30.10;41.03;99562.47;1820388;77;21061;-65
2021/08/16 11:05:14;;;;;;;8.88;6.90;;;;;;;30.17;39.95;99556.58;1805753;77;20986;-65
2021/08/16 11:07:41;;;;;;;7.17;6.47;;;;;;;30.24;40.04;99551.52;1819509;77;20999;-65
2021/08/16 11:10:10;;;;;;;9.88;6.55;;;;;;;30.31;39.91;99533.32;1828253;77;21034;-65
2021/08/16 11:12:42;;;;;;;9.20;6.20;;;;;;;30.35;39.99;99537.91;1811447;77;21113;-65
2021/08/16 11:15:15;;;;;;;10.75;6.17;;;;;;;30.40;39.69;99543.83;1820610;77;21073;-65
2021/08/16 11:17:41;;;;;;;30.88;27.62;;;;;;;30.43;38.96;99538.32;1847623;77;21069;-65
2021/08/16 11:20:17;;;;;;;15.48;13.90;;;;;;;30.43;38.68;99535.02;1847071;77;21549;-66
2021/08/16 11:22:51;;;;;;;9.43;8.33;;;;;;;30.44;38.22;99531.14;1847171;77;21005;-65
2021/08/16 11:25:18;;;;;;;9.75;6.92;;;;;;;30.44;37.82;99525.66;1833755;77;21965;-66
2021/08/16 11:27:45;;;;;;;11.45;6.40;;;;;;;30.45;37.72;99536.08;1829300;77;21009;-65